Time;durP1;ratioP1;P1;durP2;ratioP2;P2;SDS_P1;SDS_P2;PMS_P1;PMS_P2;Temp;Humidity;BMP_temperature;BMP_pressure;BME280_temperature;BME280_humidity;BME280_pressure;Samples;Min_cycle;Max_cycle;Signal;HPM_P1;HPM_P2
2022/11/05 00:09:46;;;;;;;0.35;0.20;;;6.50;99.90;;;;;;4818585;29;20062;-95
2022/11/05 00:17:42;;;;;;;0.32;0.20;;;6.40;99.90;;;;;;4815068;29;20043;-96
2022/11/05 00:20:12;;;;;;;0.23;0.23;;;6.40;99.90;;;;;;4782342;29;20050;-96
2022/11/05 00:25:33;;;;;;;0.30;0.20;;;8.00;99.90;;;;;;4806734;29;20421;-93
2022/11/05 00:28:02;;;;;;;0.98;0.10;;;6.50;99.90;;;;;;4800829;29;20474;-95
2022/11/05 00:30:31;;;;;;;0.20;0.20;;;6.00;99.90;;;;;;4809114;29;20074;-96
2022/11/05 00:33:02;;;;;;;0.28;0.10;;;6.90;99.90;;;;;;4803410;29;20125;-96
2022/11/05 00:35:28;;;;;;;0.20;0.20;;;6.30;99.90;;;;;;4806404;29;20045;-96
2022/11/05 00:37:56;;;;;;;0.50;0.10;;;7.40;99.90;;;;;;4804164;29;20050;-95
2022/11/05 00:40:22;;;;;;;0.10;0.10;;;6.40;99.90;;;;;;4787229;29;20053;-95
2022/11/05 00:45:40;;;;;;;0.28;0.28;;;6.40;99.90;;;;;;4840157;29;20555;-96
2022/11/05 00:50:53;;;;;;;0.00;0.00;;;6.30;99.90;;;;;;4821057;29;20058;-96
2022/11/05 00:53:19;;;;;;;0.20;0.20;;;6.80;99.90;;;;;;4799248;29;20050;-96
2022/11/05 00:55:46;;;;;;;0.30;0.23;;;6.40;99.90;;;;;;4802558;29;20046;-96
2022/11/05 00:58:20;;;;;;;0.22;0.10;;;7.60;99.90;;;;;;4806351;29;20795;-96
2022/11/05 01:00:59;;;;;;;0.00;0.00;;;6.30;99.90;;;;;;4807176;29;20053;-96
2022/11/05 01:03:32;;;;;;;0.00;0.00;;;6.20;99.90;;;;;;4800814;29;20047;-94
2022/11/05 01:06:18;;;;;;;0.15;0.10;;;6.20;99.90;;;;;;4803358;29;20057;-96
2022/11/05 01:08:55;;;;;;;0.00;0.00;;;6.20;99.90;;;;;;4791704;29;20103;-96
2022/11/05 01:11:35;;;;;;;0.00;0.00;;;6.10;99.90;;;;;;4806707;29;20056;-95
2022/11/05 01:14:05;;;;;;;0.10;0.00;;;6.30;99.90;;;;;;4803046;29;20054;-95
2022/11/05 01:16:31;;;;;;;0.00;0.00;;;6.10;99.90;;;;;;4806619;29;20463;-96
2022/11/05 01:19:01;;;;;;;0.22;0.22;;;6.20;99.90;;;;;;4799246;29;20045;-96
2022/11/05 01:21:30;;;;;;;1.08;0.40;;;6.20;99.90;;;;;;4802521;29;20050;-94
2022/11/05 01:24:09;;;;;;;;;;;;;;;;;;;;;
2022/11/05 01:26:37;;;;;;;0.10;0.10;;;6.10;99.90;;;;;;4843590;29;20051;-96
2022/11/05 01:29:06;;;;;;;0.10;0.10;;;6.30;99.90;;;;;;4807067;29;20066;-95
2022/11/05 01:31:39;;;;;;;0.00;0.00;;;5.90;99.90;;;;;;4805947;29;20054;-96
2022/11/05 01:34:05;;;;;;;0.00;0.00;;;6.10;99.90;;;;;;4805873;29;20134;-96
2022/11/05 01:36:33;;;;;;;0.30;0.10;;;6.00;99.90;;;;;;4805451;29;20473;-96
2022/11/05 01:39:07;;;;;;;0.10;0.10;;;5.60;99.90;;;;;;4825106;29;20047;-96
2022/11/05 01:41:35;;;;;;;0.03;0.03;;;5.90;99.90;;;;;;4812285;29;20098;-96
2022/11/05 01:44:02;;;;;;;0.10;0.10;;;4.70;99.90;;;;;;4793873;29;20052;-96
2022/11/05 01:46:36;;;;;;;0.30;0.10;;;5.90;99.90;;;;;;4798497;29;20046;-94
2022/11/05 01:49:23;;;;;;;0.00;0.00;;;5.90;99.90;;;;;;4802726;29;20183;-96
2022/11/05 01:51:54;;;;;;;0.17;0.17;;;5.80;99.90;;;;;;4805632;29;20050;-95
2022/11/05 01:54:25;;;;;;;0.13;0.00;;;5.70;99.90;;;;;;4796220;29;20050;-96
2022/11/05 01:56:59;;;;;;;0.20;0.10;;;5.70;99.90;;;;;;4802906;29;20054;-96
2022/11/05 01:59:38;;;;;;;0.17;0.10;;;5.80;99.90;;;;;;4824656;29;20050;-96
2022/11/05 02:02:07;;;;;;;0.25;0.08;;;5.70;99.90;;;;;;4804616;29;20061;-96
2022/11/05 02:04:52;;;;;;;0.10;0.10;;;5.60;99.90;;;;;;4800677;29;20051;-95
2022/11/05 02:07:24;;;;;;;0.10;0.08;;;5.60;99.90;;;;;;4805711;29;20478;-96
2022/11/05 02:10:02;;;;;;;0.00;0.00;;;7.10;99.90;;;;;;4799487;29;20054;-96
2022/11/05 02:12:29;;;;;;;0.08;0.08;;;5.50;99.90;;;;;;4805254;29;20213;-96
2022/11/05 02:14:57;;;;;;;;;;;5.50;99.90;;;;;;4805400;29;20086;-96
2022/11/05 02:17:55;;;;;;;0.08;0.08;;;5.60;99.90;;;;;;4799413;29;19976;-96
2022/11/05 02:20:44;;;;;;;0.32;0.30;;;5.40;99.90;;;;;;4787582;29;20062;-96
2022/11/05 02:23:43;;;;;;;;;;;;;;;;;;;;;
2022/11/05 02:26:21;;;;;;;0.20;0.20;;;5.50;99.90;;;;;;4813965;29;20050;-95
2022/11/05 02:29:26;;;;;;;;;;;5.40;99.90;;;;;;4822312;29;20061;-96
2022/11/05 02:32:01;;;;;;;0.35;0.30;;;5.30;99.90;;;;;;4814459;29;19929;-96
2022/11/05 02:34:59;;;;;;;0.00;0.00;;;5.30;99.90;;;;;;4807483;29;20049;-96
2022/11/05 02:37:40;;;;;;;;;;;5.30;99.90;;;;;;4824611;29;20050;-95
2022/11/05 02:40:32;;;;;;;0.10;0.10;;;5.40;99.90;;;;;;4816871;29;19962;-96
2022/11/05 02:43:15;;;;;;;0.45;0.30;;;5.20;99.90;;;;;;4813524;29;20060;-96
2022/11/05 02:46:01;;;;;;;0.20;0.20;;;5.30;99.90;;;;;;4801492;29;20512;-96
2022/11/05 02:48:47;;;;;;;0.10;0.10;;;5.40;99.90;;;;;;4818190;29;20057;-96
2022/11/05 02:51:49;;;;;;;;;;;;;;;;;;;;;
2022/11/05 02:55:05;;;;;;;0.10;0.10;;;5.30;99.90;;;;;;4813707;29;20057;-95
2022/11/05 02:57:35;;;;;;;0.13;0.13;;;4.80;99.90;;;;;;4739150;29;20069;-95
2022/11/05 03:00:26;;;;;;;0.10;0.10;;;6.80;99.90;;;;;;4814149;29;20050;-96
2022/11/05 03:02:57;;;;;;;0.13;0.13;;;5.50;99.90;;;;;;4785512;29;20146;-96
2022/11/05 03:05:51;;;;;;;0.10;0.08;;;5.30;99.90;;;;;;4802367;29;20117;-96
2022/11/05 03:08:50;;;;;;;0.10;0.10;;;4.90;99.90;;;;;;4810891;29;20045;-95
2022/11/05 03:11:23;;;;;;;0.75;0.25;;;5.20;99.90;;;;;;4797456;29;20190;-95
2022/11/05 03:14:00;;;;;;;0.35;0.20;;;6.00;99.90;;;;;;4794420;29;20042;-96
2022/11/05 03:17:07;;;;;;;0.22;0.22;;;5.30;99.90;;;;;;4822509;29;20050;-96
2022/11/05 03:20:06;;;;;;;0.63;0.30;;;5.30;99.90;;;;;;4785183;29;20149;-96
2022/11/05 03:22:42;;;;;;;0.93;0.28;;;5.30;99.90;;;;;;4820819;29;20079;-96
2022/11/05 03:25:25;;;;;;;;;;;;;;;;;;;;;
2022/11/05 03:28:01;;;;;;;0.10;0.10;;;4.60;99.90;;;;;;4812148;29;20053;-95
2022/11/05 03:30:37;;;;;;;0.17;0.17;;;4.60;99.90;;;;;;4796906;29;20059;-95
2022/11/05 03:33:22;;;;;;;0.20;0.20;;;5.30;99.90;;;;;;4803328;29;20054;-95
2022/11/05 03:35:59;;;;;;;0.20;0.20;;;5.30;99.90;;;;;;4808378;29;20050;-94
2022/11/05 03:38:33;;;;;;;;;;;5.10;99.90;;;;;;4805803;29;20073;-96
2022/11/05 03:41:07;;;;;;;0.03;0.03;;;5.20;99.90;;;;;;4804765;29;19931;-95
2022/11/05 03:44:02;;;;;;;0.40;0.30;;;5.30;99.90;;;;;;4809445;29;20061;-95
2022/11/05 03:46:37;;;;;;;0.68;0.20;;;5.10;99.90;;;;;;4811158;29;20392;-94
2022/11/05 03:49:19;;;;;;;;;;;;;;;;;;;;;
2022/11/05 03:52:29;;;;;;;;;;;;;;;;;;;;;
2022/11/05 03:55:08;;;;;;;0.10;0.05;;;5.10;99.90;;;;;;4815529;29;20050;-95
2022/11/05 03:57:54;;;;;;;0.50;0.15;;;5.50;99.90;;;;;;4791326;29;20042;-95
2022/11/05 04:00:29;;;;;;;0.08;0.08;;;5.20;99.90;;;;;;4809955;29;20102;-94
2022/11/05 04:03:19;;;;;;;0.20;0.15;;;5.20;99.90;;;;;;4808180;29;20046;-95
2022/11/05 04:13:22;;;;;;;1.40;1.23;;;5.10;99.90;;;;;;4816284;29;20107;-95
2022/11/05 04:14:17;;;;;;;0.82;0.25;;;5.10;99.90;;;;;;4806718;29;20070;-95
2022/11/05 04:25:12;;;;;;;0.20;0.20;;;5.00;99.90;;;;;;4822318;29;20074;-96
2022/11/05 04:27:40;;;;;;;0.20;0.20;;;6.30;99.90;;;;;;4804055;29;20046;-96
2022/11/05 04:30:19;;;;;;;2.00;0.70;;;5.10;99.90;;;;;;4791727;29;20053;-95
2022/11/05 04:33:09;;;;;;;0.25;0.20;;;5.00;99.90;;;;;;4812332;29;20051;-96
2022/11/05 04:35:44;;;;;;;0.30;0.30;;;5.20;99.90;;;;;;4791482;29;20057;-94
2022/11/05 04:38:25;;;;;;;;;;;;;;;;;;;;;
2022/11/05 04:41:16;;;;;;;0.28;0.28;;;3.80;99.90;;;;;;4813298;29;20061;-96
2022/11/05 04:46:29;;;;;;;0.52;0.20;;;5.10;99.90;;;;;;4805092;29;20137;-96
2022/11/05 04:48:57;;;;;;;0.40;0.30;;;6.50;99.90;;;;;;4785656;29;20149;-92
2022/11/05 04:51:26;;;;;;;0.10;0.10;;;5.20;99.90;;;;;;4803284;29;20057;-95
2022/11/05 04:54:04;;;;;;;0.30;0.30;;;4.80;99.90;;;;;;4816200;29;20047;-95
2022/11/05 04:56:42;;;;;;;0.55;0.30;;;5.80;99.90;;;;;;4808351;29;20085;-94
2022/11/05 04:59:16;;;;;;;0.10;0.10;;;5.10;99.90;;;;;;4798509;29;20106;-94
2022/11/05 05:01:53;;;;;;;0.35;0.20;;;5.10;99.90;;;;;;4792785;29;20104;-95
2022/11/05 05:04:24;;;;;;;1.27;0.20;;;5.20;99.90;;;;;;4802096;29;20050;-95
2022/11/05 05:07:11;;;;;;;0.57;0.57;;;5.90;99.90;;;;;;4790428;29;20402;-96
2022/11/05 05:09:56;;;;;;;0.45;0.20;;;5.00;99.90;;;;;;4801679;29;20054;-94
2022/11/05 05:12:27;;;;;;;0.15;0.15;;;5.10;99.90;;;;;;4810550;29;20043;-96
2022/11/05 05:14:59;;;;;;;0.75;0.30;;;5.00;99.90;;;;;;4789898;29;20106;-96
2022/11/05 05:17:27;;;;;;;0.22;0.22;;;5.10;99.90;;;;;;4794765;29;20050;-96
2022/11/05 05:22:50;;;;;;;0.63;0.20;;;6.10;99.90;;;;;;4804643;29;20287;-96
2022/11/05 05:25:22;;;;;;;0.28;0.28;;;3.70;99.90;;;;;;4787129;29;20050;-96
2022/11/05 05:27:57;;;;;;;0.10;0.10;;;5.10;99.90;;;;;;4799681;29;20042;-96
2022/11/05 05:30:33;;;;;;;0.20;0.20;;;5.00;99.90;;;;;;4800381;29;20081;-96
2022/11/05 05:33:03;;;;;;;0.40;0.40;;;5.00;99.90;;;;;;4800162;29;20061;-94
2022/11/05 05:38:21;;;;;;;0.20;0.20;;;5.00;99.90;;;;;;4813505;29;21772;-96
2022/11/05 05:40:51;;;;;;;0.13;0.13;;;5.10;99.90;;;;;;4800978;29;20565;-96
2022/11/05 05:43:50;;;;;;;;;;;;;;;;;;;;;
2022/11/05 05:46:20;;;;;;;0.70;0.70;;;6.10;99.90;;;;;;4804905;29;20054;-96
2022/11/05 05:49:15;;;;;;;0.10;0.10;;;5.90;99.90;;;;;;4805052;29;20066;-96
2022/11/05 05:52:24;;;;;;;1.67;0.35;;;4.80;99.90;;;;;;4807964;29;20125;-96
2022/11/05 05:54:52;;;;;;;0.55;0.45;;;6.30;99.90;;;;;;4808281;29;20490;-96
2022/11/05 05:57:31;;;;;;;;;;;;;;;;;;;;;
2022/11/05 06:00:10;;;;;;;0.20;0.20;;;4.40;99.90;;;;;;4815780;29;20050;-96
2022/11/05 06:02:46;;;;;;;0.45;0.32;;;6.10;99.90;;;;;;4802359;29;20047;-96
2022/11/05 06:05:38;;;;;;;0.30;0.20;;;4.70;99.90;;;;;;4801900;29;20062;-96
2022/11/05 06:08:12;;;;;;;0.28;0.20;;;4.80;99.90;;;;;;4802479;29;20050;-95
2022/11/05 06:10:54;;;;;;;0.00;0.00;;;4.30;99.90;;;;;;4801892;29;20050;-96
2022/11/05 06:13:52;;;;;;;0.30;0.30;;;4.70;99.90;;;;;;4799769;29;20046;-96
2022/11/05 06:16:42;;;;;;;0.10;0.10;;;4.70;99.90;;;;;;4762509;29;20066;-96
2022/11/05 06:19:24;;;;;;;0.10;0.10;;;4.70;99.90;;;;;;4815501;29;21821;-93
2022/11/05 06:21:57;;;;;;;0.30;0.15;;;5.50;99.90;;;;;;4807929;29;20081;-96
2022/11/05 06:24:25;;;;;;;0.10;0.10;;;4.00;99.90;;;;;;4803901;29;20046;-96
2022/11/05 06:26:58;;;;;;;0.20;0.20;;;4.70;99.90;;;;;;4808841;29;20053;-96
2022/11/05 06:29:27;;;;;;;0.10;0.10;;;4.90;99.90;;;;;;4808661;29;20062;-95
2022/11/05 06:32:00;;;;;;;0.22;0.22;;;4.80;99.90;;;;;;4808211;29;20112;-96
2022/11/05 06:34:40;;;;;;;0.10;0.10;;;4.80;99.90;;;;;;4779736;29;20071;-96
2022/11/05 06:37:11;;;;;;;0.13;0.13;;;4.80;99.90;;;;;;4822610;29;20042;-95
2022/11/05 06:39:41;;;;;;;0.25;0.20;;;4.70;99.90;;;;;;4796542;29;20566;-96
2022/11/05 06:42:10;;;;;;;0.32;0.20;;;6.20;99.90;;;;;;4788376;29;20052;-96
2022/11/05 06:44:41;;;;;;;0.35;0.35;;;3.60;99.90;;;;;;4801511;29;20050;-96
2022/11/05 06:47:19;;;;;;;0.80;0.30;;;6.20;99.90;;;;;;4787105;29;20505;-96
2022/11/05 06:49:55;;;;;;;0.30;0.30;;;3.40;99.90;;;;;;4793089;29;20509;-96
2022/11/05 06:52:40;;;;;;;0.30;0.25;;;5.40;99.90;;;;;;4782097;29;20058;-96
2022/11/05 06:55:33;;;;;;;0.55;0.15;;;4.70;99.90;;;;;;4798595;29;20046;-96
2022/11/05 06:58:26;;;;;;;1.55;0.55;;;4.60;99.90;;;;;;4798790;29;20081;-96
2022/11/05 07:01:36;;;;;;;;;;;;;;;;;;;;;
2022/11/05 07:04:47;;;;;;;0.35;0.20;;;5.40;99.90;;;;;;4810021;29;20046;-96
2022/11/05 07:07:49;;;;;;;;;;;;;;;;;;;;;
2022/11/05 07:10:47;;;;;;;;;;;;;;;;;;;;;
2022/11/05 07:14:03;;;;;;;0.20;0.13;;;4.80;99.90;;;;;;4828948;29;20042;-96
2022/11/05 07:17:21;;;;;;;0.73;0.40;;;5.30;99.90;;;;;;4785460;29;20058;-96
2022/11/05 07:20:58;;;;;;;0.47;0.20;;;4.50;99.90;;;;;;4791668;29;20680;-95
2022/11/05 07:23:23;;;;;;;;;;;3.70;99.90;;;;;;4821580;29;20089;-96
2022/11/05 07:26:19;;;;;;;1.33;0.30;;;4.90;99.90;;;;;;4797858;29;19928;-96
2022/11/05 07:29:37;;;;;;;1.10;0.30;;;4.90;99.90;;;;;;4797670;29;20050;-96
2022/11/05 07:36:43;;;;;;;;;;;;;;;;;;;;;
2022/11/05 07:39:44;;;;;;;0.00;0.00;;;5.90;99.90;;;;;;4776206;29;20074;-96
2022/11/05 07:42:22;;;;;;;0.28;0.25;;;5.30;99.90;;;;;;4767936;29;20062;-96
2022/11/05 07:45:42;;;;;;;0.15;0.10;;;5.40;99.90;;;;;;4778626;29;20034;-96
2022/11/05 07:48:16;;;;;;;0.38;0.10;;;5.80;99.90;;;;;;4799612;29;20538;-90
2022/11/05 07:50:42;;;;;;;0.20;0.20;;;5.60;99.90;;;;;;4792048;29;20050;-90
2022/11/05 07:53:13;;;;;;;0.57;0.40;;;5.60;99.90;;;;;;4803911;29;20370;-92
2022/11/05 07:55:44;;;;;;;0.22;0.22;;;5.80;99.90;;;;;;4817625;29;20362;-91
2022/11/05 07:58:10;;;;;;;0.95;0.40;;;5.90;99.90;;;;;;4808642;29;20045;-91
2022/11/05 08:00:36;;;;;;;0.20;0.20;;;5.90;99.90;;;;;;4809057;29;20038;-91
2022/11/05 08:03:09;;;;;;;0.87;0.33;;;6.00;99.90;;;;;;4780710;29;20101;-94
2022/11/05 08:05:43;;;;;;;0.40;0.25;;;6.00;99.90;;;;;;4795059;29;20053;-90
2022/11/05 08:08:20;;;;;;;1.05;0.50;;;6.10;99.90;;;;;;4823079;29;20077;-91
2022/11/05 08:10:46;;;;;;;0.30;0.20;;;6.20;99.90;;;;;;4796498;29;20050;-93
2022/11/05 08:13:13;;;;;;;0.30;0.27;;;6.40;99.90;;;;;;4794346;29;20054;-94
2022/11/05 08:15:42;;;;;;;;;;;7.90;99.90;;;;;;4797201;29;20046;-96
2022/11/05 08:18:13;;;;;;;1.67;0.70;;;6.60;99.90;;;;;;4797129;29;20375;-94
2022/11/05 08:20:39;;;;;;;0.77;0.52;;;7.40;99.90;;;;;;4798046;29;20042;-90
2022/11/05 08:23:14;;;;;;;1.95;0.32;;;6.70;99.90;;;;;;4815630;29;20043;-95
2022/11/05 08:25:42;;;;;;;0.25;0.25;;;6.90;99.90;;;;;;4801534;29;20121;-95
2022/11/05 08:28:31;;;;;;;0.10;0.10;;;7.00;99.90;;;;;;4809151;29;20042;-96
2022/11/05 08:31:09;;;;;;;0.20;0.20;;;6.80;99.90;;;;;;4803713;29;20066;-96
2022/11/05 08:33:58;;;;;;;1.60;0.40;;;7.00;99.90;;;;;;4806186;29;20038;-96
2022/11/05 08:36:24;;;;;;;0.20;0.20;;;7.10;99.90;;;;;;4809970;29;20538;-88
2022/11/05 08:39:00;;;;;;;0.40;0.40;;;7.30;99.90;;;;;;4818768;29;20048;-90
2022/11/05 08:41:26;;;;;;;0.30;0.30;;;7.40;99.90;;;;;;4796860;29;20053;-90
2022/11/05 08:44:11;;;;;;;;;;;;;;;;;;;;;
2022/11/05 08:46:54;;;;;;;0.30;0.30;;;7.30;99.90;;;;;;4812621;29;20052;-94
2022/11/05 08:49:38;;;;;;;;;;;;;;;;;;;;;
2022/11/05 08:52:39;;;;;;;0.47;0.30;;;7.60;99.90;;;;;;4822987;29;20078;-92
2022/11/05 08:55:19;;;;;;;0.22;0.20;;;7.70;99.90;;;;;;4807960;29;20089;-95
2022/11/05 08:57:54;;;;;;;0.93;0.35;;;7.80;99.90;;;;;;4780698;29;20086;-93
2022/11/05 09:00:37;;;;;;;0.15;0.15;;;7.80;99.90;;;;;;4803699;29;20053;-94
2022/11/05 09:03:05;;;;;;;0.30;0.30;;;8.10;99.90;;;;;;4797743;29;20065;-93
2022/11/05 09:05:38;;;;;;;0.90;0.43;;;7.90;99.90;;;;;;4796231;29;20107;-93
2022/11/05 09:08:18;;;;;;;0.25;0.25;;;7.90;99.90;;;;;;4796396;29;20043;-92
2022/11/05 09:10:48;;;;;;;0.32;0.32;;;7.80;99.90;;;;;;4807863;29;20042;-92
2022/11/05 09:13:17;;;;;;;0.32;0.32;;;8.50;99.90;;;;;;4794652;29;20463;-94
2022/11/05 09:15:43;;;;;;;0.30;0.30;;;8.00;99.90;;;;;;4794160;29;20085;-91
2022/11/05 09:18:15;;;;;;;0.22;0.22;;;8.10;99.90;;;;;;4795643;29;20821;-90
2022/11/05 09:20:41;;;;;;;0.30;0.30;;;8.10;99.90;;;;;;4814272;29;20175;-91
2022/11/05 09:23:13;;;;;;;1.35;0.40;;;8.20;99.90;;;;;;4795476;29;20493;-92
2022/11/05 09:25:39;;;;;;;0.28;0.20;;;8.40;99.90;;;;;;4796006;29;20497;-94
2022/11/05 09:28:30;;;;;;;0.40;0.40;;;8.50;99.90;;;;;;4794498;29;20486;-90
2022/11/05 09:30:59;;;;;;;0.20;0.20;;;8.70;99.90;;;;;;4786630;29;20562;-89
2022/11/05 09:33:27;;;;;;;0.22;0.22;;;8.70;99.90;;;;;;4807350;29;20054;-91
2022/11/05 09:35:58;;;;;;;1.02;0.65;;;8.80;99.90;;;;;;4783725;29;20061;-91
2022/11/05 09:38:27;;;;;;;2.30;0.45;;;8.90;99.90;;;;;;4794068;29;20038;-92
2022/11/05 09:41:07;;;;;;;0.30;0.20;;;9.30;99.90;;;;;;4796690;29;20086;-93
2022/11/05 09:43:42;;;;;;;2.55;0.50;;;9.20;99.90;;;;;;4793757;29;20388;-91
2022/11/05 09:46:18;;;;;;;0.57;0.30;;;9.30;99.90;;;;;;4796376;29;20058;-91
2022/11/05 09:48:50;;;;;;;0.30;0.30;;;8.50;99.90;;;;;;4800975;29;20473;-91
2022/11/05 09:51:35;;;;;;;1.02;0.32;;;9.80;99.90;;;;;;4792758;29;20046;-91
2022/11/05 09:54:04;;;;;;;0.40;0.40;;;9.90;99.90;;;;;;4794479;29;20061;-92
2022/11/05 09:56:36;;;;;;;0.65;0.35;;;10.20;99.90;;;;;;4795446;29;20043;-90
2022/11/05 09:59:43;;;;;;;0.60;0.35;;;9.40;99.90;;;;;;4806925;29;20052;-94
2022/11/05 10:02:21;;;;;;;0.32;0.32;;;10.70;99.90;;;;;;4814653;29;20482;-93
2022/11/05 10:04:50;;;;;;;0.28;0.28;;;10.80;99.90;;;;;;4799445;29;20046;-94
2022/11/05 10:07:20;;;;;;;0.52;0.40;;;10.90;99.90;;;;;;4803241;29;20038;-92
2022/11/05 10:09:55;;;;;;;0.75;0.50;;;11.00;99.90;;;;;;4827148;29;20048;-91
2022/11/05 10:12:47;;;;;;;0.80;0.30;;;11.10;99.90;;;;;;4802276;29;20085;-92
2022/11/05 10:15:29;;;;;;;0.63;0.30;;;11.20;99.90;;;;;;4801776;29;20078;-93
2022/11/05 10:18:00;;;;;;;0.40;0.30;;;11.60;99.90;;;;;;4817807;29;20038;-93
2022/11/05 10:20:38;;;;;;;1.92;0.55;;;11.60;99.90;;;;;;4813810;29;20076;-93
2022/11/05 10:23:16;;;;;;;0.63;0.38;;;11.70;99.90;;;;;;4816560;29;20042;-89
2022/11/05 10:25:51;;;;;;;0.20;0.20;;;11.90;99.90;;;;;;4827132;29;20070;-94
2022/11/05 10:28:23;;;;;;;0.85;0.30;;;12.30;99.90;;;;;;4807528;29;20077;-94
2022/11/05 10:31:01;;;;;;;0.20;0.20;;;12.50;99.90;;;;;;4776203;29;20075;-95
2022/11/05 10:33:38;;;;;;;0.47;0.20;;;12.80;99.90;;;;;;4806595;29;20076;-95
2022/11/05 10:36:09;;;;;;;0.35;0.32;;;13.00;99.90;;;;;;4775412;29;20085;-95
2022/11/05 10:38:42;;;;;;;0.63;0.32;;;13.30;99.90;;;;;;4792211;29;20385;-93
2022/11/05 10:41:13;;;;;;;0.20;0.20;;;13.90;99.90;;;;;;4821008;29;20439;-95
2022/11/05 10:43:49;;;;;;;0.20;0.20;;;13.30;99.90;;;;;;4792010;29;20049;-95
2022/11/05 10:46:41;;;;;;;0.32;0.32;;;13.40;99.90;;;;;;4792308;29;20069;-93
2022/11/05 10:50:05;;;;;;;0.45;0.43;;;13.40;99.90;;;;;;4791281;29;20066;-93
2022/11/05 10:53:03;;;;;;;;;;;;;;;;;;;;;
2022/11/05 10:55:57;;;;;;;1.85;0.55;;;12.70;99.90;;;;;;4819729;29;20046;-86
2022/11/05 10:58:53;;;;;;;0.17;0.17;;;13.60;99.90;;;;;;4788828;29;20050;-91
2022/11/05 11:01:19;;;;;;;0.30;0.20;;;13.70;99.90;;;;;;4813873;29;20050;-92
2022/11/05 11:04:03;;;;;;;0.10;0.10;;;13.80;99.90;;;;;;4806266;29;20065;-94
2022/11/05 11:06:33;;;;;;;0.20;0.10;;;13.80;99.90;;;;;;4824557;29;20065;-92
2022/11/05 11:09:08;;;;;;;0.63;0.30;;;13.70;99.90;;;;;;4793794;29;20049;-92
2022/11/05 11:11:49;;;;;;;0.25;0.25;;;13.80;99.90;;;;;;4795869;29;20130;-93
2022/11/05 11:14:15;;;;;;;0.10;0.10;;;14.40;99.90;;;;;;4808571;29;20110;-94
2022/11/05 11:16:44;;;;;;;0.33;0.10;;;13.80;99.90;;;;;;4799921;29;20045;-90
2022/11/05 11:19:52;;;;;;;0.38;0.10;;;13.80;99.90;;;;;;4806112;29;20313;-90
2022/11/05 11:22:47;;;;;;;0.30;0.30;;;13.90;99.90;;;;;;4790093;29;20046;-91
2022/11/05 11:26:20;;;;;;;0.57;0.40;;;14.10;99.90;;;;;;4799784;29;20296;-91
2022/11/05 11:29:34;;;;;;;;;;;;;;;;;;;;;
2022/11/05 11:32:21;;;;;;;0.00;0.00;;;13.70;99.90;;;;;;4723806;30;20092;-90
2022/11/05 11:34:56;;;;;;;0.03;0.03;;;14.10;99.90;;;;;;4718715;30;20127;-91
2022/11/05 11:37:40;;;;;;;0.38;0.30;;;14.30;99.90;;;;;;4725439;30;20075;-91
2022/11/05 11:43:42;;;;;;;0.10;0.10;;;14.30;99.90;;;;;;4732824;29;20051;-91
2022/11/05 11:46:21;;;;;;;0.10;0.10;;;14.50;99.90;;;;;;4782236;29;20058;-88
2022/11/05 11:48:48;;;;;;;0.00;0.00;;;14.70;99.90;;;;;;4773275;29;20073;-91
2022/11/05 11:51:39;;;;;;;0.10;0.10;;;14.80;99.90;;;;;;4776737;29;20126;-92
2022/11/05 11:54:20;;;;;;;0.20;0.20;;;14.90;99.90;;;;;;4790117;29;20402;-94
2022/11/05 11:56:50;;;;;;;0.13;0.13;;;14.80;99.90;;;;;;4782197;29;20060;-93
2022/11/05 11:59:30;;;;;;;0.00;0.00;;;14.70;99.90;;;;;;4780605;29;20461;-93
2022/11/05 12:02:05;;;;;;;0.60;0.20;;;13.60;99.90;;;;;;4789683;29;20082;-95
2022/11/05 12:05:23;;;;;;;0.35;0.10;;;14.10;99.90;;;;;;4786492;29;20042;-96
2022/11/05 12:08:04;;;;;;;0.28;0.10;;;13.60;99.90;;;;;;4791632;29;20494;-96
2022/11/05 12:11:31;;;;;;;;;;;;;;;;;;;;;
2022/11/05 12:21:49;;;;;;;0.17;0.10;;;13.60;99.90;;;;;;4752216;30;19921;-94
2022/11/05 12:24:36;;;;;;;;;;;;;;;;;;;;;
2022/11/05 12:28:12;;;;;;;;;;;;;;;;;;;;;
2022/11/05 12:36:19;;;;;;;;;;;;;;;;;;;;;
2022/11/05 12:51:18;;;;;;;;;;;;;;;;;;;;;
2022/11/05 13:14:07;;;;;;;0.00;0.00;;;12.80;99.90;;;;;;4610434;31;20075;-96
2022/11/05 15:31:45;;;;;;;;;;;;;;;;;;;;;
2022/11/05 15:35:12;;;;;;;0.28;0.28;;;9.50;99.90;;;;;;6098321;23;20016;-94
2022/11/05 15:37:49;;;;;;;0.35;0.35;;;10.20;99.90;;;;;;6023866;23;20086;-91
2022/11/05 15:40:35;;;;;;;0.73;0.50;;;9.80;99.90;;;;;;6046509;23;20462;-90
2022/11/05 15:43:29;;;;;;;1.27;0.63;;;10.10;99.90;;;;;;6045823;23;20121;-91
2022/11/05 15:46:01;;;;;;;0.32;0.32;;;10.00;99.90;;;;;;5986861;23;20015;-91
2022/11/05 15:48:30;;;;;;;0.68;0.50;;;9.10;99.90;;;;;;6055376;23;20018;-90
2022/11/05 15:50:56;;;;;;;0.20;0.20;;;10.00;99.90;;;;;;6076896;23;20068;-91
2022/11/05 15:53:47;;;;;;;0.98;0.40;;;9.90;99.90;;;;;;6100550;23;20014;-91
2022/11/05 15:56:52;;;;;;;0.40;0.40;;;10.00;99.90;;;;;;6102553;23;20014;-89
2022/11/05 15:59:28;;;;;;;0.40;0.30;;;9.80;99.90;;;;;;6100782;23;20018;-90
2022/11/05 16:02:04;;;;;;;0.30;0.30;;;9.90;99.90;;;;;;6124012;23;20383;-88
2022/11/05 16:04:33;;;;;;;0.75;0.60;;;9.80;99.90;;;;;;6100971;23;20072;-88
2022/11/05 16:07:10;;;;;;;0.25;0.25;;;9.70;99.90;;;;;;6100128;23;20018;-88
2022/11/05 16:09:39;;;;;;;0.25;0.25;;;9.70;99.90;;;;;;6099841;23;20017;-88
2022/11/05 16:12:18;;;;;;;1.15;0.38;;;9.70;99.90;;;;;;6099933;23;20077;-88
2022/11/05 16:15:00;;;;;;;1.42;0.40;;;9.70;99.90;;;;;;6099614;23;20024;-89
2022/11/05 16:17:49;;;;;;;0.45;0.45;;;9.60;99.90;;;;;;6100982;23;20435;-87
2022/11/05 16:20:31;;;;;;;0.30;0.30;;;9.60;99.90;;;;;;6099414;23;20096;-87
2022/11/05 16:23:05;;;;;;;0.40;0.40;;;9.60;99.90;;;;;;6099638;23;20020;-87
2022/11/05 16:25:40;;;;;;;0.55;0.55;;;9.50;99.90;;;;;;6099983;23;20045;-88
2022/11/05 16:28:27;;;;;;;1.15;1.05;;;9.40;99.90;;;;;;6128446;23;20013;-87
2022/11/05 16:31:04;;;;;;;0.75;0.60;;;9.40;99.90;;;;;;6100482;23;20014;-87
2022/11/05 16:33:44;;;;;;;0.50;0.50;;;9.40;99.90;;;;;;6076103;23;20018;-88
2022/11/05 16:36:10;;;;;;;0.50;0.50;;;9.50;99.90;;;;;;6099680;23;20018;-88
2022/11/05 16:38:36;;;;;;;0.60;0.60;;;9.30;99.90;;;;;;6099023;23;20326;-88
2022/11/05 16:41:01;;;;;;;1.57;0.23;;;9.30;99.90;;;;;;6075919;23;20018;-88
2022/11/05 16:43:27;;;;;;;1.67;0.87;;;9.40;99.90;;;;;;6099759;23;20018;-88
2022/11/05 16:45:57;;;;;;;0.82;0.50;;;9.30;99.90;;;;;;6099829;23;20013;-88
2022/11/05 16:48:23;;;;;;;0.30;0.30;;;9.30;99.90;;;;;;6100094;23;20010;-88
2022/11/05 16:50:51;;;;;;;1.60;0.60;;;9.30;99.90;;;;;;6098904;23;20013;-88
2022/11/05 16:53:25;;;;;;;0.50;0.50;;;9.30;99.90;;;;;;6099887;23;20014;-88
2022/11/05 16:55:50;;;;;;;0.98;0.60;;;9.30;99.90;;;;;;6075426;23;20045;-88
2022/11/05 16:58:18;;;;;;;1.17;0.50;;;8.80;99.90;;;;;;6099979;23;20010;-89
2022/11/05 17:00:44;;;;;;;0.73;0.73;;;9.20;99.90;;;;;;6098607;23;20025;-87
2022/11/05 17:03:10;;;;;;;0.50;0.50;;;9.30;99.90;;;;;;6099359;23;20009;-92
2022/11/05 17:05:36;;;;;;;0.13;0.13;;;9.30;99.90;;;;;;6098942;23;20068;-90
2022/11/05 17:08:02;;;;;;;0.77;0.67;;;9.20;99.90;;;;;;6099836;23;20014;-89
2022/11/05 17:10:28;;;;;;;0.45;0.40;;;9.10;99.90;;;;;;6100526;23;20331;-91
2022/11/05 17:12:54;;;;;;;0.98;0.40;;;8.20;99.90;;;;;;6100520;23;20056;-90
2022/11/05 17:15:24;;;;;;;1.37;0.97;;;9.20;99.90;;;;;;6101834;23;20323;-88
2022/11/05 17:18:00;;;;;;;1.10;0.60;;;9.20;99.90;;;;;;6099724;23;20458;-94
2022/11/05 17:20:37;;;;;;;0.70;0.47;;;9.40;99.90;;;;;;6101003;23;20018;-93
2022/11/05 17:23:04;;;;;;;0.50;0.50;;;9.10;99.90;;;;;;6100189;23;20013;-90
2022/11/05 17:25:30;;;;;;;0.85;0.63;;;9.20;99.90;;;;;;6098570;23;20450;-92
2022/11/05 17:28:00;;;;;;;0.82;0.55;;;9.00;99.90;;;;;;6110255;23;20096;-91
2022/11/05 17:30:26;;;;;;;1.30;0.45;;;9.20;99.90;;;;;;6104304;23;20379;-90
2022/11/05 17:32:51;;;;;;;0.43;0.43;;;9.50;99.90;;;;;;6103326;23;20022;-93
2022/11/05 17:35:20;;;;;;;2.47;0.87;;;9.10;99.90;;;;;;6099258;23;20061;-89
2022/11/05 17:37:46;;;;;;;1.65;0.95;;;9.10;99.90;;;;;;6123774;23;20096;-91
2022/11/05 17:40:19;;;;;;;2.33;1.05;;;9.10;99.90;;;;;;6099959;23;20018;-92
2022/11/05 17:42:45;;;;;;;1.80;0.60;;;9.00;99.90;;;;;;6123420;23;20053;-92
2022/11/05 17:45:20;;;;;;;1.05;0.52;;;9.00;99.90;;;;;;6099638;23;20081;-95
2022/11/05 17:47:54;;;;;;;1.38;1.08;;;9.90;99.90;;;;;;6099849;23;20041;-92
2022/11/05 17:50:27;;;;;;;0.40;0.40;;;9.00;99.90;;;;;;6100512;23;20018;-93
2022/11/05 17:52:58;;;;;;;0.50;0.50;;;9.90;99.90;;;;;;6081534;23;20021;-95
2022/11/05 17:55:30;;;;;;;0.43;0.30;;;10.00;99.90;;;;;;6100078;23;20025;-94
2022/11/05 17:58:06;;;;;;;0.98;0.88;;;9.90;99.90;;;;;;6100999;23;20010;-94
2022/11/05 18:00:38;;;;;;;0.90;0.50;;;9.00;99.90;;;;;;6098760;23;20081;-96
2022/11/05 18:04:32;;;;;;;0.43;0.30;;;9.00;99.90;;;;;;6100672;23;20060;-95
2022/11/05 18:06:41;;;;;;;2.10;0.70;;;9.00;99.90;;;;;;6106798;23;20021;-96
2022/11/05 18:09:18;;;;;;;1.65;0.50;;;9.00;99.90;;;;;;6102614;23;20022;-95
2022/11/05 18:19:19;;;;;;;1.77;0.60;;;8.20;99.90;;;;;;6075594;23;20017;-95
2022/11/05 18:22:00;;;;;;;1.27;0.75;;;9.10;99.90;;;;;;6129960;23;20056;-91
2022/11/05 18:24:26;;;;;;;0.70;0.65;;;9.00;99.90;;;;;;6055090;23;20013;-95
2022/11/05 18:27:05;;;;;;;0.80;0.57;;;9.00;99.90;;;;;;6128320;23;20041;-96